ROMMA est une association bénévole à but non lucratif. Votre soutien est indispensable : ADHERER à ROMMA ou FAIRE un DON

Die - (26, Drôme)

Diois (400 m)   Longitude: 5° 21' 55"E   Latitude: 44° 45' 16"N Station partenaire n°159
 

Détail journalier du     <<     >>

Température Precipitation Humidité Pression Vent Dir Rafale Dir. rafale Ensol.
Heure (°C) (mm) (%) (hPa) (km/h) (km/h) (min)
01:00 -3.3094102702ONO0
02:00 -3.6093102703ONO0
03:00 -4.1093102703ONO0
04:00 -4.6093102703ONO0
05:00 -4.7092102703ONO0
06:00 -5.1092102702ONO0
07:00 -5.4093102803ONO0
08:00 -5.3093102803ONO0
09:00 -4.7094102803ONO0
10:00 -3.309410291OSO5OSO50
11:00 -1.909410301S3S0
12:00 -0.409210301S5SSO20
13:00 1.408910302S5SSO20
14:00 5.106610304NNE15NNE50
15:00 5.9058103010N26NNO40
16:00 5.1058103111N32NNE0
17:00 4.7056103110NNO32ONO0
18:00 4.305710328NNE29NNE0
19:00 3.906110325NO13N0
20:00 3.706110336N16N0
21:00 3.406210337NNO19NNO0
22:00 010347---16NO0
23:00 01034000
minuit 01035000

Graphique du 19-01-2020

 

Serveur OMMA